createdAt,value
2022-12-31T00:04:52.963Z,49.20
2022-12-31T00:10:01.401Z,60.10
2022-12-31T00:15:11.302Z,55.20
2022-12-31T00:20:19.991Z,54.60
2022-12-31T00:25:27.870Z,51.90
2022-12-31T00:30:38.140Z,51.80
2022-12-31T00:35:46.025Z,46.70
2022-12-31T00:40:57.480Z,42.10
2022-12-31T00:46:06.073Z,48.60
2022-12-31T00:51:15.925Z,50.20
2022-12-31T01:02:00.349Z,45.90
2022-12-31T01:07:08.261Z,41.70
2022-12-31T01:12:15.918Z,47.10
2022-12-31T01:17:24.433Z,48.30
2022-12-31T01:22:31.889Z,52.30
2022-12-31T01:27:39.478Z,50.50
2022-12-31T01:32:46.903Z,49.40
2022-12-31T01:37:55.984Z,49.80
2022-12-31T01:43:03.921Z,42.50
2022-12-31T01:48:16.153Z,49.10
2022-12-31T01:53:25.228Z,46.10
2022-12-31T01:58:38.629Z,45.00
2022-12-31T02:03:46.407Z,47.90
2022-12-31T02:08:54.800Z,54.20
2022-12-31T02:14:06.005Z,56.60
2022-12-31T02:19:42.001Z,63.20
2022-12-31T02:25:28.244Z,45.00
2022-12-31T02:30:36.652Z,40.20
2022-12-31T02:35:52.078Z,48.80
2022-12-31T02:41:02.375Z,50.30
2022-12-31T02:46:21.960Z,52.20
2022-12-31T02:51:42.231Z,49.90
2022-12-31T02:57:00.984Z,50.40
2022-12-31T03:02:16.530Z,47.70
2022-12-31T03:07:30.451Z,48.50
2022-12-31T03:12:47.850Z,50.50
2022-12-31T03:18:03.051Z,53.70
2022-12-31T03:23:13.044Z,33.50
2022-12-31T03:28:23.175Z,35.00
2022-12-31T03:33:35.853Z,48.50
2022-12-31T03:38:44.758Z,46.30
2022-12-31T03:43:55.891Z,52.50
2022-12-31T03:49:03.688Z,33.90
2022-12-31T03:54:12.121Z,28.40
2022-12-31T03:59:19.687Z,44.50
2022-12-31T04:04:27.962Z,43.80
2022-12-31T04:09:36.077Z,41.10
2022-12-31T04:14:43.989Z,49.20
2022-12-31T04:19:52.011Z,45.50
2022-12-31T04:25:00.781Z,46.10
2022-12-31T04:30:10.060Z,43.50
2022-12-31T04:35:17.980Z,37.90
2022-12-31T04:40:26.195Z,40.70
2022-12-31T04:45:34.017Z,36.70
2022-12-31T04:50:41.772Z,44.20
2022-12-31T05:02:09.915Z,43.30
2022-12-31T05:07:20.841Z,40.60
2022-12-31T05:12:29.446Z,39.60
2022-12-31T05:17:37.423Z,44.10
2022-12-31T05:22:44.944Z,45.10
2022-12-31T05:27:52.436Z,42.30
2022-12-31T05:33:00.467Z,43.80
2022-12-31T05:38:08.067Z,33.60
2022-12-31T05:43:15.792Z,41.70
2022-12-31T05:48:23.900Z,43.40
2022-12-31T05:53:31.815Z,45.50
2022-12-31T05:58:39.545Z,45.50
2022-12-31T06:07:02.817Z,40.30
2022-12-31T06:12:11.365Z,42.80
2022-12-31T06:17:19.419Z,55.10
2022-12-31T06:22:27.668Z,43.80
2022-12-31T06:27:34.976Z,43.50
2022-12-31T06:37:48.701Z,39.20
2022-12-31T06:43:00.203Z,39.90
2022-12-31T06:48:09.629Z,41.60
2022-12-31T06:53:16.771Z,45.20
2022-12-31T07:02:22.726Z,37.40
2022-12-31T07:07:36.292Z,40.50
2022-12-31T07:12:58.958Z,41.60
2022-12-31T07:18:13.273Z,36.30
2022-12-31T07:23:21.807Z,42.50
2022-12-31T07:28:42.980Z,45.40
2022-12-31T07:34:01.642Z,41.30
2022-12-31T07:39:12.748Z,39.50
2022-12-31T07:44:32.616Z,38.90
2022-12-31T07:49:44.766Z,41.90
2022-12-31T07:54:52.915Z,48.50
2022-12-31T08:00:10.647Z,42.80
2022-12-31T08:10:38.965Z,28.10
2022-12-31T08:15:48.643Z,35.60
2022-12-31T08:21:10.725Z,50.00
2022-12-31T08:26:32.814Z,38.40
2022-12-31T08:31:49.903Z,37.50
2022-12-31T08:37:03.263Z,36.30
2022-12-31T08:42:22.257Z,34.80
2022-12-31T08:47:41.951Z,24.10
2022-12-31T08:52:52.314Z,29.20
2022-12-31T08:58:17.037Z,32.00
2022-12-31T09:03:37.851Z,30.80
2022-12-31T09:08:52.927Z,24.60
2022-12-31T09:14:21.445Z,26.80
2022-12-31T09:19:30.958Z,20.80
2022-12-31T09:24:43.140Z,28.00
2022-12-31T09:30:00.977Z,28.00
2022-12-31T09:35:14.017Z,24.30
2022-12-31T09:41:27.228Z,24.30
2022-12-31T09:47:03.468Z,24.70
2022-12-31T09:52:28.256Z,29.80
2022-12-31T09:57:42.864Z,24.10
2022-12-31T10:03:18.199Z,18.70
2022-12-31T10:08:45.449Z,14.80
2022-12-31T10:14:08.218Z,10.80
2022-12-31T10:20:02.603Z,10.70
2022-12-31T10:25:39.712Z,10.50
2022-12-31T10:30:59.876Z,7.90
2022-12-31T10:36:17.973Z,6.60
2022-12-31T10:42:03.467Z,5.90
2022-12-31T10:47:42.816Z,5.20
2022-12-31T10:53:32.037Z,4.90
2022-12-31T10:59:06.557Z,4.20
2022-12-31T11:04:46.826Z,3.70
2022-12-31T11:10:38.049Z,3.30
2022-12-31T11:16:12.425Z,5.30
2022-12-31T11:21:54.614Z,2.50
2022-12-31T11:27:15.796Z,2.90
2022-12-31T11:32:35.309Z,2.40
2022-12-31T11:37:48.980Z,2.70
2022-12-31T11:43:01.901Z,2.60
2022-12-31T11:48:30.253Z,3.10
2022-12-31T11:54:10.555Z,2.60
2022-12-31T11:59:19.835Z,2.80
2022-12-31T12:04:29.733Z,2.60
2022-12-31T12:09:37.902Z,2.70
2022-12-31T12:14:47.384Z,2.60
2022-12-31T12:20:02.474Z,17.60
2022-12-31T12:25:20.895Z,2.30
2022-12-31T12:30:41.663Z,2.90
2022-12-31T12:35:50.294Z,2.60
2022-12-31T12:41:01.583Z,2.70
2022-12-31T12:46:21.201Z,2.90
2022-12-31T12:51:44.324Z,2.80
2022-12-31T12:57:01.374Z,2.70
2022-12-31T13:07:39.569Z,2.90
2022-12-31T13:18:36.840Z,3.10
2022-12-31T13:23:53.408Z,3.80
2022-12-31T13:29:06.853Z,3.50
2022-12-31T13:34:21.180Z,9.80
2022-12-31T13:39:37.682Z,3.20
2022-12-31T13:44:51.789Z,3.80
2022-12-31T13:50:16.357Z,4.30
2022-12-31T13:55:31.381Z,4.20
2022-12-31T14:00:46.383Z,4.60
2022-12-31T14:06:02.681Z,4.40
2022-12-31T14:11:20.251Z,5.40
2022-12-31T14:16:37.572Z,5.80
2022-12-31T14:21:49.445Z,4.70
2022-12-31T14:27:00.406Z,5.50
2022-12-31T14:32:34.221Z,7.20
2022-12-31T14:37:50.966Z,5.90
2022-12-31T14:43:15.367Z,5.40
2022-12-31T14:48:34.006Z,6.10
2022-12-31T14:53:55.455Z,6.20
2022-12-31T14:59:04.318Z,9.20
2022-12-31T15:04:17.111Z,8.70
2022-12-31T15:09:42.553Z,6.70
2022-12-31T15:15:17.496Z,6.90
2022-12-31T15:20:47.525Z,6.80
2022-12-31T15:26:00.252Z,7.00
2022-12-31T15:31:19.059Z,6.90
2022-12-31T15:36:31.781Z,7.20
2022-12-31T15:42:18.546Z,7.30
2022-12-31T15:47:29.108Z,7.00
2022-12-31T15:52:42.612Z,8.40
2022-12-31T15:57:51.284Z,7.00
2022-12-31T16:02:59.534Z,7.30
2022-12-31T16:08:08.347Z,6.20
2022-12-31T16:13:23.235Z,6.20
2022-12-31T16:18:41.392Z,6.40
2022-12-31T16:23:56.025Z,6.20
2022-12-31T16:29:09.847Z,7.60
2022-12-31T16:34:22.299Z,8.30
2022-12-31T16:39:33.522Z,14.00
2022-12-31T16:44:43.064Z,12.80
2022-12-31T16:49:57.804Z,9.20
2022-12-31T16:55:18.660Z,12.10
2022-12-31T17:00:28.833Z,12.80
2022-12-31T17:05:54.755Z,11.60
2022-12-31T17:11:23.176Z,15.70
2022-12-31T17:16:34.914Z,20.50
2022-12-31T17:31:59.861Z,17.10
2022-12-31T17:37:20.025Z,19.10
2022-12-31T17:42:33.097Z,14.50
2022-12-31T17:47:43.169Z,12.20
2022-12-31T17:52:55.470Z,15.20
2022-12-31T17:58:07.259Z,11.40
2022-12-31T18:03:15.205Z,11.00
2022-12-31T18:08:23.511Z,9.90
2022-12-31T18:13:33.373Z,13.90
2022-12-31T18:18:44.876Z,12.00
2022-12-31T18:29:04.476Z,23.90
2022-12-31T18:34:17.002Z,23.00
2022-12-31T18:39:26.013Z,22.00
2022-12-31T18:44:34.081Z,30.70
2022-12-31T18:49:43.833Z,18.10
2022-12-31T18:54:52.793Z,17.40
2022-12-31T19:00:01.522Z,19.80
2022-12-31T19:05:24.657Z,22.00
2022-12-31T19:10:33.847Z,20.50
2022-12-31T19:15:46.668Z,21.10
2022-12-31T19:20:54.784Z,19.10
2022-12-31T19:26:02.231Z,26.80
2022-12-31T19:31:09.576Z,31.60
2022-12-31T19:36:20.505Z,31.70
2022-12-31T19:41:29.152Z,32.40
2022-12-31T19:46:36.374Z,32.20
2022-12-31T19:51:43.959Z,27.40
2022-12-31T20:02:08.710Z,34.30
2022-12-31T20:07:26.820Z,34.60
2022-12-31T20:12:40.688Z,33.80
2022-12-31T20:17:54.288Z,29.20
2022-12-31T20:23:02.049Z,35.70
2022-12-31T20:28:10.494Z,35.90
2022-12-31T20:33:19.386Z,35.80
2022-12-31T20:38:29.765Z,33.40
2022-12-31T20:43:37.996Z,35.50
2022-12-31T20:48:46.615Z,31.50
2022-12-31T20:54:01.321Z,33.70
2022-12-31T20:59:10.803Z,33.90
2022-12-31T21:04:18.910Z,34.00
2022-12-31T21:09:27.845Z,29.40
2022-12-31T21:14:39.836Z,35.10
2022-12-31T21:19:50.852Z,32.00
2022-12-31T21:25:01.318Z,33.40
2022-12-31T21:30:19.334Z,37.80
2022-12-31T21:35:51.672Z,35.60
2022-12-31T21:41:02.457Z,41.50
2022-12-31T21:46:11.117Z,39.50
2022-12-31T21:51:19.411Z,45.30
2022-12-31T21:56:27.358Z,44.00
2022-12-31T22:01:52.377Z,35.90
2022-12-31T22:07:01.178Z,45.00
2022-12-31T22:12:09.623Z,46.00
2022-12-31T22:17:17.232Z,40.10
2022-12-31T22:22:25.867Z,43.00
2022-12-31T22:27:33.566Z,39.10
2022-12-31T22:32:41.404Z,31.00
2022-12-31T22:37:59.632Z,39.60
2022-12-31T22:43:11.256Z,35.60
2022-12-31T22:48:18.846Z,37.60
2022-12-31T22:53:26.888Z,38.80
2022-12-31T22:58:34.474Z,37.70
2022-12-31T23:03:42.589Z,36.60
2022-12-31T23:09:04.468Z,42.00
2022-12-31T23:14:35.798Z,54.70
2022-12-31T23:20:01.493Z,62.30
2022-12-31T23:25:11.788Z,73.60
2022-12-31T23:30:24.651Z,60.80
2022-12-31T23:35:32.669Z,53.80
2022-12-31T23:40:40.557Z,57.60
2022-12-31T23:45:51.908Z,54.70
2022-12-31T23:51:11.049Z,58.20
2022-12-31T23:56:23.951Z,58.20
